createdAt,value
2022-09-04T00:01:54.110Z,99546.73
2022-09-04T00:07:09.466Z,99522.88
2022-09-04T00:12:26.298Z,99448.81
2022-09-04T00:17:40.554Z,99366.53
2022-09-04T00:22:56.040Z,99353.88
2022-09-04T00:28:06.699Z,99351.38
2022-09-04T00:33:20.385Z,99338.86
2022-09-04T00:38:37.761Z,99299.41
2022-09-04T00:44:24.610Z,99255.64
2022-09-04T00:49:47.242Z,99283.82
2022-09-04T00:55:06.522Z,99340.39
2022-09-04T01:00:16.441Z,99369.23
2022-09-04T01:05:39.815Z,99410.45
2022-09-04T01:10:57.922Z,99421.29
2022-09-04T01:16:13.476Z,99413.98
2022-09-04T01:21:39.544Z,99401.94
2022-09-04T01:26:55.714Z,99429.27
2022-09-04T01:32:10.346Z,99418.40
2022-09-04T01:37:31.265Z,99412.70
2022-09-04T01:42:45.741Z,97142.52
2022-09-04T01:47:58.828Z,97052.53
2022-09-04T01:53:13.065Z,97100.11
2022-09-04T01:58:28.765Z,97111.59
2022-09-04T02:03:50.211Z,97146.33
2022-09-04T02:09:15.586Z,97191.43
2022-09-04T02:14:36.929Z,97209.23
2022-09-04T02:20:04.659Z,97232.86
2022-09-04T02:25:23.997Z,38893.14
2022-09-04T02:30:39.191Z,-1.00
2022-09-04T02:35:51.363Z,-1.00
2022-09-04T02:41:04.781Z,-1.00
2022-09-04T02:46:17.219Z,-1.00
2022-09-04T02:51:35.525Z,-1.00
2022-09-04T02:56:52.249Z,-1.00
2022-09-04T03:02:01.654Z,-1.00
2022-09-04T03:07:15.103Z,-1.00
2022-09-04T03:12:36.209Z,-1.00
2022-09-04T03:17:53.503Z,-1.00
2022-09-04T03:23:09.984Z,-1.00
2022-09-04T03:28:27.188Z,-1.00
2022-09-04T03:33:41.057Z,-1.00
2022-09-04T03:39:02.610Z,-1.00
2022-09-04T03:44:23.130Z,-1.00
2022-09-04T03:49:44.222Z,-1.00
2022-09-04T03:55:21.151Z,-1.00
2022-09-04T04:00:30.878Z,-1.00
2022-09-04T04:05:56.194Z,-1.00
2022-09-04T04:11:18.633Z,-1.00
2022-09-04T04:16:40.634Z,-1.00
2022-09-04T04:22:04.992Z,-1.00
2022-09-04T04:27:26.037Z,-1.00
2022-09-04T04:32:51.566Z,-1.00
2022-09-04T04:38:09.175Z,-1.00
2022-09-04T04:43:23.221Z,-1.00
2022-09-04T04:49:08.036Z,-1.00
2022-09-04T04:54:27.527Z,-1.00
2022-09-04T04:59:44.191Z,19447.90
2022-09-04T05:05:02.485Z,97597.80
2022-09-04T05:10:18.605Z,97826.14
2022-09-04T05:15:35.985Z,98261.33
2022-09-04T05:20:59.151Z,98354.82
2022-09-04T05:26:17.591Z,98443.60
2022-09-04T05:31:33.921Z,98549.08
2022-09-04T05:36:57.327Z,98642.72
2022-09-04T05:42:24.711Z,98799.55
2022-09-04T05:47:42.167Z,19779.79
2022-09-04T05:53:16.015Z,-1.00
2022-09-04T05:58:39.433Z,-1.00
2022-09-04T06:04:08.588Z,-1.00
2022-09-04T06:09:36.931Z,-1.00
2022-09-04T06:15:13.337Z,-1.00
2022-09-04T06:20:33.620Z,-1.00
2022-09-04T06:25:55.653Z,-1.00
2022-09-04T06:31:09.132Z,-1.00
2022-09-04T06:36:45.941Z,-1.00
2022-09-04T06:42:12.251Z,-1.00
2022-09-04T06:47:30.460Z,-1.00
2022-09-04T06:52:46.195Z,-1.00
2022-09-04T06:58:16.926Z,-1.00
2022-09-04T07:03:34.136Z,-1.00
2022-09-04T07:08:55.902Z,-1.00
2022-09-04T07:14:34.005Z,-1.00
2022-09-04T07:19:55.957Z,-1.00
2022-09-04T07:25:17.308Z,-1.00
2022-09-04T07:30:26.152Z,-1.00
2022-09-04T07:35:39.940Z,-1.00
2022-09-04T07:40:53.425Z,-1.00
2022-09-04T07:46:12.450Z,-1.00
2022-09-04T07:51:22.177Z,-1.00
2022-09-04T07:56:43.165Z,-1.00
2022-09-04T08:02:03.854Z,-1.00
2022-09-04T08:07:15.579Z,-1.00
2022-09-04T08:12:42.733Z,-1.00
2022-09-04T08:18:07.165Z,-1.00
2022-09-04T08:23:31.412Z,-1.00
2022-09-04T08:28:57.336Z,-1.00
2022-09-04T08:34:30.922Z,-1.00
2022-09-04T08:39:47.394Z,-1.00
2022-09-04T08:45:42.414Z,-1.00
2022-09-04T08:51:29.684Z,-1.00
2022-09-04T08:56:47.324Z,-1.00
2022-09-04T09:02:30.410Z,-1.00
2022-09-04T09:08:05.104Z,-1.00
2022-09-04T09:13:51.756Z,-1.00
2022-09-04T09:19:12.744Z,-1.00
2022-09-04T09:24:46.462Z,-1.00
2022-09-04T09:30:07.507Z,-1.00
2022-09-04T09:36:04.747Z,-1.00
2022-09-04T09:42:01.185Z,-1.00
2022-09-04T09:47:45.776Z,-1.00
2022-09-04T09:53:30.691Z,-1.00
2022-09-04T09:59:07.195Z,-1.00
2022-09-04T10:04:53.128Z,-1.00
2022-09-04T10:10:25.285Z,-1.00
2022-09-04T10:15:46.551Z,-1.00
2022-09-04T10:21:13.968Z,-1.00
2022-09-04T10:26:39.802Z,-1.00
2022-09-04T10:32:05.225Z,-1.00
2022-09-04T10:37:32.013Z,-1.00
2022-09-04T10:42:54.088Z,-1.00
2022-09-04T10:48:27.848Z,-1.00
2022-09-04T10:53:56.612Z,-1.00
2022-09-04T10:59:30.827Z,-1.00
2022-09-04T11:05:15.729Z,-1.00
2022-09-04T11:10:35.816Z,-1.00
2022-09-04T11:16:01.371Z,-1.00
2022-09-04T11:21:38.172Z,-1.00
2022-09-04T11:27:24.453Z,-1.00
2022-09-04T11:32:52.478Z,-1.00
2022-09-04T11:38:12.729Z,-1.00
2022-09-04T11:43:50.075Z,-1.00
2022-09-04T11:49:26.649Z,-1.00
2022-09-04T11:54:57.960Z,-1.00
2022-09-04T12:00:12.539Z,-1.00
2022-09-04T12:05:40.444Z,-1.00
2022-09-04T12:11:07.179Z,-1.00
2022-09-04T12:16:47.465Z,-1.00
2022-09-04T12:22:26.219Z,-1.00
2022-09-04T12:27:49.114Z,-1.00
2022-09-04T12:33:37.943Z,-1.00
2022-09-04T12:39:03.746Z,-1.00
2022-09-04T12:44:19.523Z,-1.00
2022-09-04T12:49:56.164Z,-1.00
2022-09-04T12:55:10.839Z,-1.00
2022-09-04T13:00:18.972Z,-1.00
2022-09-04T13:05:41.788Z,-1.00
2022-09-04T13:11:07.966Z,-1.00
2022-09-04T13:16:23.531Z,-1.00
2022-09-04T13:21:46.536Z,-1.00
2022-09-04T13:27:10.320Z,-1.00
2022-09-04T13:32:45.663Z,-1.00
2022-09-04T13:38:12.382Z,-1.00
2022-09-04T13:43:47.649Z,-1.00
2022-09-04T13:49:01.159Z,-1.00
2022-09-04T13:54:12.482Z,-1.00
2022-09-04T13:59:21.759Z,-1.00
2022-09-04T14:04:33.666Z,-1.00
2022-09-04T14:09:45.017Z,-1.00
2022-09-04T14:15:20.782Z,-1.00
2022-09-04T14:20:33.716Z,-1.00
2022-09-04T14:25:51.006Z,-1.00
2022-09-04T14:31:11.170Z,-1.00
2022-09-04T14:36:35.647Z,-1.00
2022-09-04T14:42:04.626Z,-1.00
2022-09-04T14:47:21.039Z,-1.00
2022-09-04T14:52:36.655Z,-1.00
2022-09-04T14:57:51.520Z,-1.00
2022-09-04T15:03:07.761Z,-1.00
2022-09-04T15:08:27.689Z,-1.00
2022-09-04T15:13:51.692Z,-1.00
2022-09-04T15:19:06.908Z,-1.00
2022-09-04T15:24:23.310Z,-1.00
2022-09-04T15:29:40.948Z,-1.00
2022-09-04T15:34:47.857Z,-1.00
2022-09-04T15:40:06.195Z,-1.00
2022-09-04T15:45:20.936Z,-1.00
2022-09-04T15:50:32.977Z,-1.00
2022-09-04T15:55:42.713Z,-1.00
2022-09-04T16:01:16.923Z,-1.00
2022-09-04T16:06:32.291Z,-1.00
2022-09-04T16:11:46.705Z,-1.00
2022-09-04T16:16:56.756Z,-1.00
2022-09-04T16:22:11.613Z,-1.00
2022-09-04T16:27:21.815Z,-1.00
2022-09-04T16:32:32.191Z,-1.00
2022-09-04T16:37:45.546Z,-1.00
2022-09-04T16:42:57.127Z,-1.00
2022-09-04T16:48:34.171Z,-1.00
2022-09-04T16:53:48.571Z,-1.00
2022-09-04T16:59:02.316Z,-1.00
2022-09-04T17:04:23.934Z,-1.00
2022-09-04T17:09:39.702Z,-1.00
2022-09-04T17:14:52.674Z,-1.00
2022-09-04T17:20:08.525Z,-1.00
2022-09-04T17:28:58.705Z,-1.00
2022-09-04T17:31:03.630Z,-1.00
2022-09-04T17:40:54.773Z,-1.00
2022-09-04T17:42:08.275Z,-1.00
2022-09-04T17:47:28.502Z,-1.00
2022-09-04T17:52:39.674Z,-1.00
2022-09-04T17:57:57.514Z,-1.00
2022-09-04T18:03:13.965Z,-1.00
2022-09-04T18:08:25.653Z,-1.00
2022-09-04T18:13:40.492Z,-1.00
2022-09-04T18:18:50.621Z,-1.00
2022-09-04T18:24:03.147Z,-1.00
2022-09-04T18:32:29.051Z,-1.00
2022-09-04T18:37:22.287Z,-1.00
2022-09-04T18:43:41.462Z,-1.00
2022-09-04T18:50:25.943Z,-1.00
2022-09-04T18:51:47.471Z,-1.00
2022-09-04T18:57:00.440Z,-1.00
2022-09-04T19:02:20.746Z,-1.00
2022-09-04T19:07:33.179Z,-1.00
2022-09-04T19:12:49.726Z,-1.00
2022-09-04T19:18:01.441Z,-1.00
2022-09-04T19:23:17.072Z,-1.00
2022-09-04T19:28:28.503Z,-1.00
2022-09-04T19:33:40.986Z,-1.00
2022-09-04T19:45:57.804Z,-1.00
2022-09-04T19:46:17.180Z,-1.00
2022-09-04T19:53:22.064Z,-1.00
2022-09-04T19:55:37.415Z,-1.00
2022-09-04T20:00:50.058Z,-1.00
2022-09-04T20:06:19.863Z,-1.00
2022-09-04T20:11:36.076Z,-1.00
2022-09-04T20:16:50.165Z,-1.00
2022-09-04T20:22:01.429Z,-1.00
2022-09-04T20:27:16.085Z,-1.00
2022-09-04T20:32:27.802Z,-1.00
2022-09-04T20:37:46.149Z,-1.00
2022-09-04T20:43:06.598Z,-1.00
2022-09-04T20:52:53.517Z,-1.00
2022-09-04T20:54:09.957Z,-1.00
2022-09-04T21:03:06.533Z,-1.00
2022-09-04T21:05:02.505Z,-1.00
2022-09-04T21:10:19.793Z,-1.00
2022-09-04T21:15:43.754Z,-1.00
2022-09-04T21:21:05.260Z,-1.00
2022-09-04T21:26:22.640Z,-1.00
2022-09-04T21:31:48.943Z,-1.00
2022-09-04T21:37:03.866Z,-1.00
2022-09-04T21:42:29.789Z,-1.00
2022-09-04T21:48:18.320Z,-1.00
2022-09-04T21:54:00.998Z,-1.00
2022-09-04T22:02:40.459Z,-1.00
2022-09-04T22:05:00.778Z,-1.00
2022-09-04T22:13:33.828Z,-1.00
2022-09-04T22:16:14.685Z,-1.00
2022-09-04T22:21:30.964Z,-1.00
2022-09-04T22:27:10.167Z,-1.00
2022-09-04T22:32:54.621Z,-1.00
2022-09-04T22:38:37.228Z,-1.00
2022-09-04T22:43:53.466Z,-1.00
2022-09-04T22:49:34.758Z,-1.00
2022-09-04T22:54:58.048Z,-1.00
2022-09-04T23:00:12.964Z,-1.00
2022-09-04T23:05:37.200Z,-1.00
2022-09-04T23:13:50.371Z,-1.00
2022-09-04T23:16:57.362Z,-1.00
2022-09-04T23:26:39.301Z,-1.00
2022-09-04T23:27:41.162Z,-1.00
2022-09-04T23:33:27.564Z,-1.00
2022-09-04T23:39:16.767Z,-1.00
2022-09-04T23:45:14.568Z,-1.00
2022-09-04T23:50:52.202Z,-1.00
2022-09-04T23:56:32.914Z,-1.00
